DABC/CZL METAR and TAF weather

Enter ICAO airport designator
Station Type Date Time Source
DABC METAR 2018/07/16 23:30 UTC NOAA

DABC 162330Z VRB02KT CAVOK 21/08 Q1021


Station Type Date Time Source
DABC Decoded METAR 2018/07/16 23:30 UTC NOAA

Constantine, Algeria (DABC) 36-17N 006-37E 694M
Jul 16, 2018 - 07:30 PM EDT / 2018.07.16 2330 UTC
Wind: Variable at 2 MPH (2 KT):0
Visibility: greater than 7 mile(s):0
Temperature: 69 F (21 C)
Dew Point: 46 F (8 C)
Relative Humidity: 43%
Pressure (altimeter): 30.15 in. Hg (1021 hPa)
ob: DABC 162330Z VRB02KT CAVOK 21/08 Q1021
cycle: 23

Station Type Date Time Source
DABC TAF 2018/07/16 18:33 UTC NOAA

TAF DABC 161700Z 1618/1718 35012KT 8000 FEW030 SCT200 PROB30
TEMPO 1618/1620 FEW026TCU
BECMG 1620/1622 VRB02KT
BECMG 1710/1712 03012KT PROB30
TEMPO 1712/1718 FEW023TCU


Example: see airport list